Enchantment of the Seas — C6FZ7 — position and weather

sailwx.info

Track history (hours):
 
Tides and Currents Weather Stations Pressure Air Temp Water Temp Dewpoint Dewpoint Depression Visibility Wind Speed Wind Dir Waves Ship Positions

Enchantment of the Seas (Bahamas)

Last reported at 2017-Jul-22 17:00 UTC. Time now 2017-Jul-22 18:27 UTC.
Position N 25°48' W 077°54'.

Type: Passenger vessel. MMSI: 311733000.

Wind from 110 at 10 knots

Barometer 1020.1 mb
Air temperature 29.3 ° C
Visibility: greater than 10.8 NM
Dewpoint 24.7 ° C

Date/timePositionNaut miles runAvg speedWind from/ knotsBaromVisibWave heightAir tempDewpointWater temp
2017-Jul-22 17:00N 25°48' W 077°54'0 0.0 110 / 101020.110.8 29.324.7
2017-Jul-22 13:00N 25°48' W 077°54'59 7.4 140 / 121019.910.8 28.524.7
2017-Jul-22 05:00N 26°12' W 078°54'7 6.7 160 / 121019.110.8 27.723.929.7
2017-Jul-22 03:55N 26°17' W 079°00'4 8.6
2017-Jul-22 03:30N 26°17' W 079°04'4 8.5
2017-Jul-22 03:00N 26°16' W 079°09'4 8.1
2017-Jul-22 02:30N 26°15' W 079°13'4 8.7
2017-Jul-22 02:00N 26°13' W 079°17'173.9
2017-Jul-22 02:00N 26°12' W 079°18'3 6.9 160 / 61019.210.8 27.222.3
2017-Jul-22 01:30N 26°10' W 079°21'5 9.5
2017-Jul-22 00:57N 26°07' W 079°26'4 9.2
2017-Jul-22 00:29N 26°05' W 079°30'5 9.6
2017-Jul-22 00:00N 26°03' W 079°35'510.1
2017-Jul-21 23:30N 26°01' W 079°40'510.3
2017-Jul-21 23:00N 25°58' W 079°44'510.3
2017-Jul-21 22:30N 25°55' W 079°49'510.2
2017-Jul-21 22:00N 25°52' W 079°54'510.3
2017-Jul-21 21:30N 25°49' W 079°59'5 9.7
2017-Jul-21 21:00N 25°47' W 080°03'5 9.4
2017-Jul-21 20:30N 25°46' W 080°08'2 3.9
2017-Jul-21 19:55N 25°47' W 080°11'0 0.0
2017-Jul-21 19:25N 25°47' W 080°11'0 0.0
2017-Jul-21 18:58N 25°47' W 080°11'0 0.0
2017-Jul-21 18:28N 25°47' W 080°11'0 0.0
2017-Jul-21 17:58N 25°47' W 080°11'0 0.0
2017-Jul-21 17:28N 25°47' W 080°11'0 0.0
2017-Jul-21 16:58N 25°47' W 080°11'0 0.0
2017-Jul-21 16:28N 25°47' W 080°11'0 0.0
2017-Jul-21 15:58N 25°47' W 080°11'0 0.0
2017-Jul-21 15:28N 25°47' W 080°11'0 0.0
2017-Jul-21 14:58N 25°47' W 080°11'0 0.0
2017-Jul-21 14:28N 25°47' W 080°11'613.2
2017-Jul-21 14:00N 25°42' W 080°06'6364.8 200 / 51019.210.8 30.026.0
2017-Jul-21 13:58N 25°47' W 080°11'0 0.0
2017-Jul-21 13:28N 25°47' W 080°11'0 0.0
2017-Jul-21 12:58N 25°47' W 080°11'0 0.0
2017-Jul-21 12:28N 25°47' W 080°11'0 0.0
2017-Jul-21 11:58N 25°47' W 080°11'0 0.0
2017-Jul-21 11:28N 25°47' W 080°11'0 0.7
2017-Jul-21 11:00N 25°47' W 080°11'3 5.3
2017-Jul-21 10:30N 25°46' W 080°08'510.2
2017-Jul-21 10:00N 25°47' W 080°03'510.8
2017-Jul-21 09:30N 25°43' W 079°58'714.4
2017-Jul-21 09:00N 25°36' W 079°58'714.5
2017-Jul-21 08:30N 25°29' W 079°60'714.6
2017-Jul-21 08:00N 25°22' W 080°01'714.6
2017-Jul-21 07:30N 25°15' W 080°04'4317.0
2017-Jul-21 05:00N 24°36' W 080°24'1717.4 140 / 151017.010.8 29.025.830.9
2017-Jul-21 04:00N 24°30' W 080°42'60 6.0 110 / 81018.110.8 29.226.0
2017-Jul-20 18:00N 24°30' W 081°48'0 0.0 180 / 61019.610.8 30.925.4
2017-Jul-20 17:00N 24°30' W 081°48'10210.7 170 / 51020.010.8 31.425.2
2017-Jul-20 07:29N 25°10' W 080°05'918.4
2017-Jul-20 07:00N 25°17' W 079°59'917.9
2017-Jul-20 06:30N 25°24' W 079°53'917.7
2017-Jul-20 06:00N 25°31' W 079°47'917.9
2017-Jul-20 05:30N 25°38' W 079°40'918.4
2017-Jul-20 05:00N 25°45' W 079°34'1018.7
2017-Jul-20 04:30N 25°52' W 079°26'121 5.1
2017-Jul-19 05:00N 25°18' W 077°18'44 4.0 120 / 121020.810.8 28.125.329.7
2017-Jul-18 18:00N 25°48' W 077°54'59 4.5 140 / 101019.810.8 27.024.4
2017-Jul-18 05:00N 26°12' W 078°54'1110.8 160 / 111018.810.8 28.324.630.0
2017-Jul-18 04:00N 26°12' W 079°06'21 7.2 150 / 131019.110.8 28.424.6
2017-Jul-18 01:04N 26°06' W 079°29'1 8.6
2017-Jul-18 01:00N 26°06' W 079°29'5 8.8
2017-Jul-18 00:29N 26°03' W 079°33'4 9.0
2017-Jul-18 00:00N 26°01' W 079°37'4 8.8
2017-Jul-17 23:30N 25°59' W 079°42'5 9.4
2017-Jul-17 23:00N 25°56' W 079°46'5 9.6
2017-Jul-17 22:30N 25°54' W 079°50'5 9.8
2017-Jul-17 22:00N 25°51' W 079°55'5 9.5
2017-Jul-17 21:30N 25°49' W 079°59'5 9.4
2017-Jul-17 21:01N 25°46' W 080°04'5 9.4
2017-Jul-17 20:31N 25°46' W 080°09'2 3.0
2017-Jul-17 20:00N 25°47' W 080°11'0 0.1
2017-Jul-17 19:30N 25°47' W 080°11'0 0.0
2017-Jul-17 19:00N 25°47' W 080°11'6777.7
2017-Jul-17 19:00N 25°42' W 080°06'613.2 190 / 121017.010.8 30.524.4
2017-Jul-17 18:30N 25°47' W 080°11'0 0.0
2017-Jul-17 18:00N 25°47' W 080°11'0 0.0
2017-Jul-17 17:30N 25°47' W 080°11'0 0.0
2017-Jul-17 17:00N 25°47' W 080°11'0 0.0
2017-Jul-17 16:30N 25°47' W 080°11'0 0.0
2017-Jul-17 16:00N 25°47' W 080°11'0 0.0
2017-Jul-17 15:30N 25°47' W 080°11'0 0.0
2017-Jul-17 15:00N 25°47' W 080°11'0 0.0
2017-Jul-17 14:30N 25°47' W 080°11'0 0.0
2017-Jul-17 14:00N 25°47' W 080°11'0 0.0
2017-Jul-17 13:24N 25°47' W 080°11'0 0.0
2017-Jul-17 13:00N 25°47' W 080°11'0 0.0
2017-Jul-17 12:24N 25°47' W 080°11'0 0.0
2017-Jul-17 12:00N 25°47' W 080°11'0 0.0
2017-Jul-17 11:27N 25°47' W 080°11'0 0.0
2017-Jul-17 10:57N 25°47' W 080°11'1 1.4
2017-Jul-17 10:30N 25°47' W 080°10'4 8.5
2017-Jul-17 10:01N 25°46' W 080°06'610.9
2017-Jul-17 09:30N 25°48' W 079°60'611.4
2017-Jul-17 09:00N 25°51' W 079°54'611.7
2017-Jul-17 08:30N 25°53' W 079°49'611.8
2017-Jul-17 08:00N 25°56' W 079°43'4514.9
2017-Jul-17 05:00N 26°06' W 078°54'10910.9 160 / 151016.810.8 27.625.330.1
2017-Jul-16 19:00N 25°00' W 077°18'19 1.3 140 / 201017.1 5.4 28.625.4
2017-Jul-16 05:00N 25°18' W 077°12'13 4.4 080 / 161016.010.8 27.924.229.6
2017-Jul-16 02:00N 25°30' W 077°18'37 2.9 120 / 161015.610.8 27.825.1
2017-Jul-15 13:00N 25°48' W 077°54'69 6.9 070 / 101018.410.8 27.925.6
2017-Jul-15 03:00N 26°12' W 079°06'3010.7 100 / 91019.210.8 28.324.6
2017-Jul-15 00:12N 26°01' W 079°37'2 8.3
2017-Jul-14 23:59N 26°00' W 079°39'4 8.4
2017-Jul-14 23:30N 25°58' W 079°42'4 8.9
2017-Jul-14 23:00N 25°56' W 079°47'5 9.7
2017-Jul-14 22:30N 25°53' W 079°51'5 9.6
2017-Jul-14 22:00N 25°51' W 079°56'5 9.5
2017-Jul-14 21:30N 25°48' W 080°00'4 9.0
2017-Jul-14 21:00N 25°46' W 080°04'4 8.5
2017-Jul-14 20:30N 25°46' W 080°09'2 3.2
2017-Jul-14 19:57N 25°47' W 080°11'0 0.0
2017-Jul-14 19:27N 25°47' W 080°11'0 0.0
2017-Jul-14 19:00N 25°47' W 080°11'0 0.0
2017-Jul-14 18:27N 25°47' W 080°11'0 0.0
2017-Jul-14 17:54N 25°47' W 080°11'0 0.0
2017-Jul-14 17:30N 25°47' W 080°11'0 0.0
2017-Jul-14 17:00N 25°47' W 080°11'0 0.0
2017-Jul-14 16:27N 25°47' W 080°11'0 0.0
2017-Jul-14 16:00N 25°47' W 080°11'0 0.0
2017-Jul-14 15:30N 25°47' W 080°11'0 0.0
2017-Jul-14 14:57N 25°47' W 080°11'0 0.0
2017-Jul-14 14:30N 25°47' W 080°11'0 0.0
2017-Jul-14 14:00N 25°47' W 080°11'0 0.0
2017-Jul-14 13:30N 25°47' W 080°11'0 0.0
2017-Jul-14 13:00N 25°47' W 080°11'0 0.0
2017-Jul-14 12:30N 25°47' W 080°11'0 0.0
2017-Jul-14 12:00N 25°47' W 080°11'0 0.0
2017-Jul-14 11:27N 25°47' W 080°11'0 0.8
2017-Jul-14 11:01N 25°47' W 080°11'3 6.6
2017-Jul-14 10:31N 25°46' W 080°08'510.2
2017-Jul-14 10:00N 25°47' W 080°02'4 8.9
2017-Jul-14 09:31N 25°44' W 079°58'713.8
2017-Jul-14 09:01N 25°37' W 079°59'713.8
2017-Jul-14 08:30N 25°31' W 079°59'714.0
2017-Jul-14 08:00N 25°24' W 080°01'713.9
2017-Jul-14 07:30N 25°17' W 080°03'3814.9
2017-Jul-14 05:00N 24°42' W 080°18'2814.1 120 / 241017.510.8 28.825.429.9
2017-Jul-14 03:00N 24°24' W 080°42'60 7.5 110 / 211017.610.8 28.525.7
2017-Jul-13 19:00N 24°30' W 081°48'28 3.1 070 / 191017.510.8 28.726.2
2017-Jul-13 10:00N 24°24' W 081°18'7816.3 110 / 111016.510.8 27.725.829.9
2017-Jul-13 05:11N 25°08' W 080°07'315.2
2017-Jul-13 05:00N 25°11' W 080°05'5298.1
2017-Jul-13 05:00N 25°06' W 080°06'1224.6 070 / 171018.410.8 26.825.529.9
2017-Jul-13 04:30N 25°17' W 080°00'714.9
2017-Jul-13 04:00N 25°23' W 079°55'815.2
2017-Jul-13 03:30N 25°28' W 079°50'815.3
2017-Jul-13 03:00N 25°34' W 079°44'816.7
2017-Jul-13 02:30N 25°40' W 079°38'918.3
2017-Jul-13 02:00N 25°47' W 079°31'5325.6
2017-Jul-13 02:00N 25°42' W 079°30'8710.8 080 / 181017.710.8 28.425.7
2017-Jul-12 18:00N 25°48' W 077°54'   090 / 221018.610.8 29.025.9
Track history (hours):
 
Tides and Currents Weather Stations Pressure Air Temp Water Temp Dewpoint Dewpoint Depression Visibility Wind Speed Wind Dir Waves Ship Positions

Enchantment of the Seas (Bahamas)

Last reported at 2017-Jul-22 17:00 UTC. Time now 2017-Jul-22 18:27 UTC.
Position N 25°48' W 077°54'.

Type: Passenger vessel. MMSI: 311733000.

Wind from 110 at 10 knots

Barometer 1020.1 mb
Air temperature 29.3 ° C
Visibility: greater than 10.8 NM
Dewpoint 24.7 ° C

Date/timePositionNaut miles runAvg speedWind from/ knotsBaromVisibWave heightAir tempDewpointWater temp
2017-Jul-22 17:00N 25°48' W 077°54'0 0.0 110 / 101020.110.8 29.324.7
2017-Jul-22 13:00N 25°48' W 077°54'59 7.4 140 / 121019.910.8 28.524.7
2017-Jul-22 05:00N 26°12' W 078°54'7 6.7 160 / 121019.110.8 27.723.929.7
2017-Jul-22 03:55N 26°17' W 079°00'4 8.6
2017-Jul-22 03:30N 26°17' W 079°04'4 8.5
2017-Jul-22 03:00N 26°16' W 079°09'4 8.1
2017-Jul-22 02:30N 26°15' W 079°13'4 8.7
2017-Jul-22 02:00N 26°13' W 079°17'173.9
2017-Jul-22 02:00N 26°12' W 079°18'3 6.9 160 / 61019.210.8 27.222.3
2017-Jul-22 01:30N 26°10' W 079°21'5 9.5
2017-Jul-22 00:57N 26°07' W 079°26'4 9.2
2017-Jul-22 00:29N 26°05' W 079°30'5 9.6
2017-Jul-22 00:00N 26°03' W 079°35'510.1
2017-Jul-21 23:30N 26°01' W 079°40'510.3
2017-Jul-21 23:00N 25°58' W 079°44'510.3
2017-Jul-21 22:30N 25°55' W 079°49'510.2
2017-Jul-21 22:00N 25°52' W 079°54'510.3
2017-Jul-21 21:30N 25°49' W 079°59'5 9.7
2017-Jul-21 21:00N 25°47' W 080°03'5 9.4
2017-Jul-21 20:30N 25°46' W 080°08'2 3.9
2017-Jul-21 19:55N 25°47' W 080°11'0 0.0
2017-Jul-21 19:25N 25°47' W 080°11'0 0.0
2017-Jul-21 18:58N 25°47' W 080°11'0 0.0
2017-Jul-21 18:28N 25°47' W 080°11'0 0.0
2017-Jul-21 17:58N 25°47' W 080°11'0 0.0
2017-Jul-21 17:28N 25°47' W 080°11'0 0.0
2017-Jul-21 16:58N 25°47' W 080°11'0 0.0
2017-Jul-21 16:28N 25°47' W 080°11'0 0.0
2017-Jul-21 15:58N 25°47' W 080°11'0 0.0
2017-Jul-21 15:28N 25°47' W 080°11'0 0.0
2017-Jul-21 14:58N 25°47' W 080°11'0 0.0
2017-Jul-21 14:28N 25°47' W 080°11'613.2
2017-Jul-21 14:00N 25°42' W 080°06'6364.8 200 / 51019.210.8 30.026.0
2017-Jul-21 13:58N 25°47' W 080°11'0 0.0
2017-Jul-21 13:28N 25°47' W 080°11'0 0.0
2017-Jul-21 12:58N 25°47' W 080°11'0 0.0
2017-Jul-21 12:28N 25°47' W 080°11'0 0.0
2017-Jul-21 11:58N 25°47' W 080°11'0 0.0
2017-Jul-21 11:28N 25°47' W 080°11'0 0.7
2017-Jul-21 11:00N 25°47' W 080°11'3 5.3
2017-Jul-21 10:30N 25°46' W 080°08'510.2
2017-Jul-21 10:00N 25°47' W 080°03'510.8
2017-Jul-21 09:30N 25°43' W 079°58'714.4
2017-Jul-21 09:00N 25°36' W 079°58'714.5
2017-Jul-21 08:30N 25°29' W 079°60'714.6
2017-Jul-21 08:00N 25°22' W 080°01'714.6
2017-Jul-21 07:30N 25°15' W 080°04'4317.0
2017-Jul-21 05:00N 24°36' W 080°24'1717.4 140 / 151017.010.8 29.025.830.9
2017-Jul-21 04:00N 24°30' W 080°42'60 6.0 110 / 81018.110.8 29.226.0
2017-Jul-20 18:00N 24°30' W 081°48'0 0.0 180 / 61019.610.8 30.925.4
2017-Jul-20 17:00N 24°30' W 081°48'10210.7 170 / 51020.010.8 31.425.2
2017-Jul-20 07:29N 25°10' W 080°05'918.4
2017-Jul-20 07:00N 25°17' W 079°59'917.9
2017-Jul-20 06:30N 25°24' W 079°53'917.7
2017-Jul-20 06:00N 25°31' W 079°47'917.9
2017-Jul-20 05:30N 25°38' W 079°40'918.4
2017-Jul-20 05:00N 25°45' W 079°34'1018.7
2017-Jul-20 04:30N 25°52' W 079°26'121 5.1
2017-Jul-19 05:00N 25°18' W 077°18'44 4.0 120 / 121020.810.8 28.125.329.7
2017-Jul-18 18:00N 25°48' W 077°54'59 4.5 140 / 101019.810.8 27.024.4
2017-Jul-18 05:00N 26°12' W 078°54'1110.8 160 / 111018.810.8 28.324.630.0
2017-Jul-18 04:00N 26°12' W 079°06'21 7.2 150 / 131019.110.8 28.424.6
2017-Jul-18 01:04N 26°06' W 079°29'1 8.6
2017-Jul-18 01:00N 26°06' W 079°29'5 8.8
2017-Jul-18 00:29N 26°03' W 079°33'4 9.0
2017-Jul-18 00:00N 26°01' W 079°37'4 8.8
2017-Jul-17 23:30N 25°59' W 079°42'5 9.4
2017-Jul-17 23:00N 25°56' W 079°46'5 9.6
2017-Jul-17 22:30N 25°54' W 079°50'5 9.8
2017-Jul-17 22:00N 25°51' W 079°55'5 9.5
2017-Jul-17 21:30N 25°49' W 079°59'5 9.4
2017-Jul-17 21:01N 25°46' W 080°04'5 9.4
2017-Jul-17 20:31N 25°46' W 080°09'2 3.0
2017-Jul-17 20:00N 25°47' W 080°11'0 0.1
2017-Jul-17 19:30N 25°47' W 080°11'0 0.0
2017-Jul-17 19:00N 25°47' W 080°11'6777.7
2017-Jul-17 19:00N 25°42' W 080°06'613.2 190 / 121017.010.8 30.524.4
2017-Jul-17 18:30N 25°47' W 080°11'0 0.0
2017-Jul-17 18:00N 25°47' W 080°11'0 0.0
2017-Jul-17 17:30N 25°47' W 080°11'0 0.0
2017-Jul-17 17:00N 25°47' W 080°11'0 0.0
2017-Jul-17 16:30N 25°47' W 080°11'0 0.0
2017-Jul-17 16:00N 25°47' W 080°11'0 0.0
2017-Jul-17 15:30N 25°47' W 080°11'0 0.0
2017-Jul-17 15:00N 25°47' W 080°11'0 0.0
2017-Jul-17 14:30N 25°47' W 080°11'0 0.0
2017-Jul-17 14:00N 25°47' W 080°11'0 0.0
2017-Jul-17 13:24N 25°47' W 080°11'0 0.0
2017-Jul-17 13:00N 25°47' W 080°11'0 0.0
2017-Jul-17 12:24N 25°47' W 080°11'0 0.0
2017-Jul-17 12:00N 25°47' W 080°11'0 0.0
2017-Jul-17 11:27N 25°47' W 080°11'0 0.0
2017-Jul-17 10:57N 25°47' W 080°11'1 1.4
2017-Jul-17 10:30N 25°47' W 080°10'4 8.5
2017-Jul-17 10:01N 25°46' W 080°06'610.9
2017-Jul-17 09:30N 25°48' W 079°60'611.4
2017-Jul-17 09:00N 25°51' W 079°54'611.7
2017-Jul-17 08:30N 25°53' W 079°49'611.8
2017-Jul-17 08:00N 25°56' W 079°43'4514.9
2017-Jul-17 05:00N 26°06' W 078°54'10910.9 160 / 151016.810.8 27.625.330.1
2017-Jul-16 19:00N 25°00' W 077°18'19 1.3 140 / 201017.1 5.4 28.625.4
2017-Jul-16 05:00N 25°18' W 077°12'13 4.4 080 / 161016.010.8 27.924.229.6
2017-Jul-16 02:00N 25°30' W 077°18'37 2.9 120 / 161015.610.8 27.825.1
2017-Jul-15 13:00N 25°48' W 077°54'69 6.9 070 / 101018.410.8 27.925.6
2017-Jul-15 03:00N 26°12' W 079°06'3010.7 100 / 91019.210.8 28.324.6
2017-Jul-15 00:12N 26°01' W 079°37'2 8.3
2017-Jul-14 23:59N 26°00' W 079°39'4 8.4
2017-Jul-14 23:30N 25°58' W 079°42'4 8.9
2017-Jul-14 23:00N 25°56' W 079°47'5 9.7
2017-Jul-14 22:30N 25°53' W 079°51'5 9.6
2017-Jul-14 22:00N 25°51' W 079°56'5 9.5
2017-Jul-14 21:30N 25°48' W 080°00'4 9.0
2017-Jul-14 21:00N 25°46' W 080°04'4 8.5
2017-Jul-14 20:30N 25°46' W 080°09'2 3.2
2017-Jul-14 19:57N 25°47' W 080°11'0 0.0
2017-Jul-14 19:27N 25°47' W 080°11'0 0.0
2017-Jul-14 19:00N 25°47' W 080°11'0 0.0
2017-Jul-14 18:27N 25°47' W 080°11'0 0.0
2017-Jul-14 17:54N 25°47' W 080°11'0 0.0
2017-Jul-14 17:30N 25°47' W 080°11'0 0.0
2017-Jul-14 17:00N 25°47' W 080°11'0 0.0
2017-Jul-14 16:27N 25°47' W 080°11'0 0.0
2017-Jul-14 16:00N 25°47' W 080°11'0 0.0
2017-Jul-14 15:30N 25°47' W 080°11'0 0.0
2017-Jul-14 14:57N 25°47' W 080°11'0 0.0
2017-Jul-14 14:30N 25°47' W 080°11'0 0.0
2017-Jul-14 14:00N 25°47' W 080°11'0 0.0
2017-Jul-14 13:30N 25°47' W 080°11'0 0.0
2017-Jul-14 13:00N 25°47' W 080°11'0 0.0
2017-Jul-14 12:30N 25°47' W 080°11'0 0.0
2017-Jul-14 12:00N 25°47' W 080°11'0 0.0
2017-Jul-14 11:27N 25°47' W 080°11'0 0.8
2017-Jul-14 11:01N 25°47' W 080°11'3 6.6
2017-Jul-14 10:31N 25°46' W 080°08'510.2
2017-Jul-14 10:00N 25°47' W 080°02'4 8.9
2017-Jul-14 09:31N 25°44' W 079°58'713.8
2017-Jul-14 09:01N 25°37' W 079°59'713.8
2017-Jul-14 08:30N 25°31' W 079°59'714.0
2017-Jul-14 08:00N 25°24' W 080°01'713.9
2017-Jul-14 07:30N 25°17' W 080°03'3814.9
2017-Jul-14 05:00N 24°42' W 080°18'2814.1 120 / 241017.510.8 28.825.429.9
2017-Jul-14 03:00N 24°24' W 080°42'60 7.5 110 / 211017.610.8 28.525.7
2017-Jul-13 19:00N 24°30' W 081°48'28 3.1 070 / 191017.510.8 28.726.2
2017-Jul-13 10:00N 24°24' W 081°18'7816.3 110 / 111016.510.8 27.725.829.9
2017-Jul-13 05:11N 25°08' W 080°07'315.2
2017-Jul-13 05:00N 25°11' W 080°05'5298.1
2017-Jul-13 05:00N 25°06' W 080°06'1224.6 070 / 171018.410.8 26.825.529.9
2017-Jul-13 04:30N 25°17' W 080°00'714.9
2017-Jul-13 04:00N 25°23' W 079°55'815.2
2017-Jul-13 03:30N 25°28' W 079°50'815.3
2017-Jul-13 03:00N 25°34' W 079°44'816.7
2017-Jul-13 02:30N 25°40' W 079°38'918.3
2017-Jul-13 02:00N 25°47' W 079°31'5325.6
2017-Jul-13 02:00N 25°42' W 079°30'8710.8 080 / 181017.710.8 28.425.7
2017-Jul-12 18:00N 25°48' W 077°54'   090 / 221018.610.8 29.025.9

Dump ship's entire track history